Time;durP1;ratioP1;P1;durP2;ratioP2;P2;SDS_P1;SDS_P2;PMS_P1;PMS_P2;Temp;Humidity;BMP_temperature;BMP_pressure;BME280_temperature;BME280_humidity;BME280_pressure;Samples;Min_cycle;Max_cycle;Signal;HPM_P1;HPM_P2
2021/10/17 00:31:43;;;;;;;64.22;40.95;;;180.10;2252.80;;;;;;4865445;29;20060;-81
2021/10/17 00:59:12;;;;;;;67.18;44.72;;;204.80;2252.80;;;;;;4704894;30;20076;-82
2021/10/17 02:11:06;;;;;;;41.60;28.55;;;204.90;2252.80;;;;;;4942182;29;20070;-82
2021/10/17 02:48:20;;;;;;;41.15;25.50;;;180.10;2252.80;;;;;;5677334;23;20068;-81
2021/10/17 03:38:42;;;;;;;43.40;26.85;;;154.40;2252.80;;;;;;6033666;23;20014;31
2021/10/17 05:10:32;;;;;;;95.28;52.72;;;153.90;2252.80;;;;;;5934608;23;20227;31
2021/10/17 05:13:32;;;;;;;104.20;54.40;;;153.70;2252.80;;;;;;5928943;23;20070;31
2021/10/17 05:16:45;;;;;;;130.82;70.97;;;153.90;2252.80;;;;;;5967971;23;20787;31
2021/10/17 07:03:53;;;;;;;26.15;15.25;;;230.40;2252.80;;;;;;4951110;29;20143;-85
2021/10/17 07:06:19;;;;;;;25.98;15.93;;;230.40;2252.80;;;;;;4939555;29;20087;-85
2021/10/17 07:08:45;;;;;;;43.60;17.50;;;230.50;2252.80;;;;;;4938724;29;20035;-84
2021/10/17 07:11:11;;;;;;;30.75;18.25;;;230.60;2252.80;;;;;;4936729;29;20035;-93
2021/10/17 07:13:37;;;;;;;37.65;20.05;;;230.70;2252.80;;;;;;4956304;29;20033;-94
2021/10/17 07:16:03;;;;;;;33.25;19.45;;;230.70;2252.80;;;;;;4939174;29;20034;-86
2021/10/17 07:18:28;;;;;;;28.98;16.95;;;230.90;2252.80;;;;;;4939054;29;20019;-85
2021/10/17 07:20:54;;;;;;;25.27;16.55;;;231.00;2252.80;;;;;;4939026;29;20106;-85
2021/10/17 07:23:20;;;;;;;30.45;17.83;;;231.10;2252.80;;;;;;4939008;29;20122;-86
2021/10/17 07:25:46;;;;;;;38.38;20.45;;;231.20;2252.80;;;;;;4956034;29;20493;-85
2021/10/17 07:28:12;;;;;;;33.95;19.85;;;256.00;2252.80;;;;;;4956207;29;20023;-84
2021/10/17 07:30:38;;;;;;;34.40;20.83;;;256.10;2252.80;;;;;;4938941;29;20515;-85
2021/10/17 07:33:04;;;;;;;36.92;20.98;;;256.20;2252.80;;;;;;4938384;29;20038;-87
2021/10/17 07:35:30;;;;;;;32.35;21.65;;;256.40;2252.80;;;;;;4938909;29;20027;-85
2021/10/17 07:37:57;;;;;;;33.88;20.52;;;256.60;2252.80;;;;;;4938440;29;20481;-85
2021/10/17 07:40:24;;;;;;;27.38;17.15;;;256.70;2252.80;;;;;;4955991;29;20035;-86
2021/10/17 07:42:50;;;;;;;23.65;14.10;;;256.90;2227.20;;;;;;4938336;29;20023;-85
2021/10/17 07:45:16;;;;;;;23.83;14.50;;;281.80;2201.60;;;;;;4938718;29;20035;-86
2021/10/17 07:47:42;;;;;;;22.75;14.05;;;281.80;2201.60;;;;;;4955158;29;20038;-85
2021/10/17 07:50:09;;;;;;;19.33;13.18;;;281.90;2201.60;;;;;;4938116;29;20106;-85
2021/10/17 07:52:36;;;;;;;19.90;13.35;;;282.20;2150.40;;;;;;4938348;29;20171;-84
2021/10/17 07:55:06;;;;;;;20.25;13.40;;;282.30;2150.40;;;;;;4938204;29;20480;-84
2021/10/17 07:57:50;;;;;;;21.77;15.35;;;307.30;2150.40;;;;;;4955357;29;20106;-84
2021/10/17 08:00:18;;;;;;;23.42;15.25;;;307.60;2073.60;;;;;;4954425;29;20451;-85
2021/10/17 08:02:44;;;;;;;46.63;17.02;;;307.90;2073.60;;;;;;4952472;29;20055;-84
2021/10/17 08:05:10;;;;;;;40.83;20.77;;;332.90;2048.00;;;;;;4938335;29;20039;-83
2021/10/17 08:07:36;;;;;;;29.55;16.35;;;333.20;1996.80;;;;;;4937838;29;20035;-89
2021/10/17 08:10:02;;;;;;;22.25;13.95;;;333.60;1971.20;;;;;;4938488;29;20039;-83
2021/10/17 08:12:28;;;;;;;24.65;14.95;;;358.60;1920.00;;;;;;4938388;29;20058;-84
2021/10/17 08:14:54;;;;;;;23.40;15.50;;;359.10;1868.80;;;;;;4953057;29;20476;-82
2021/10/17 08:17:20;;;;;;;21.42;14.48;;;435.20;1689.60;;;;;;4938748;29;20038;-80
2021/10/17 08:19:46;;;;;;;28.48;16.42;;;486.80;1408.00;;;;;;4955834;29;20102;-80
2021/10/17 08:22:12;;;;;;;25.13;16.67;;;538.30;1254.40;;;;;;4938660;29;20118;-82
2021/10/17 08:24:37;;;;;;;28.88;17.60;;;588.90;1152.00;;;;;;4955348;29;20035;-80
2021/10/17 08:27:03;;;;;;;21.95;15.48;;;614.80;1075.20;;;;;;4955297;29;20031;-81
2021/10/17 08:29:29;;;;;;;24.55;15.13;;;640.20;972.80;;;;;;4937510;29;20031;-81
2021/10/17 08:31:57;;;;;;;25.98;16.13;;;640.50;947.20;;;;;;4937847;29;20090;-80
2021/10/17 08:34:23;;;;;;;29.13;16.33;;;665.70;947.20;;;;;;4937481;29;20404;-84
2021/10/17 08:36:48;;;;;;;21.35;15.93;;;691.20;896.00;;;;;;4937561;29;20099;-78
2021/10/17 08:39:15;;;;;;;24.30;16.58;;;691.40;896.00;;;;;;4937693;29;20031;-82
2021/10/17 08:41:41;;;;;;;24.52;18.05;;;692.00;844.80;;;;;;4938338;29;20024;-82
2021/10/17 08:44:07;;;;;;;22.90;17.63;;;717.20;844.80;;;;;;4938176;29;20031;-82
2021/10/17 08:46:33;;;;;;;31.70;19.20;;;742.40;844.80;;;;;;4955166;29;20031;-81
2021/10/17 08:49:00;;;;;;;24.40;19.10;;;742.70;819.20;;;;;;4937862;29;20065;-81
2021/10/17 08:51:26;;;;;;;28.20;19.02;;;743.10;844.80;;;;;;4918975;29;20036;-81
2021/10/17 08:53:52;;;;;;;24.50;19.83;;;768.00;819.20;;;;;;4952199;28;20031;-82
2021/10/17 08:56:19;;;;;;;24.33;19.50;;;768.50;793.60;;;;;;4937959;29;20166;-82
2021/10/17 08:58:45;;;;;;;27.45;17.10;;;768.80;768.00;;;;;;4937226;29;20035;-84
2021/10/17 09:01:13;;;;;;;44.20;31.20;;;768.80;768.00;;;;;;4937682;29;20123;-82
2021/10/17 09:03:40;;;;;;;21.98;18.05;;;794.10;742.40;;;;;;4954802;29;20472;-82
2021/10/17 09:06:17;;;;;;;26.10;17.45;;;768.90;716.80;;;;;;4937825;29;20074;-78
2021/10/17 09:08:43;;;;;;;23.20;16.90;;;768.70;742.40;;;;;;4955163;29;20019;-78
2021/10/17 09:11:11;;;;;;;21.45;16.65;;;768.60;716.80;;;;;;4937701;29;20031;-77
2021/10/17 09:14:10;;;;;;;22.00;17.60;;;768.90;742.40;;;;;;4954945;29;20031;-83
2021/10/17 09:16:38;;;;;;;29.50;21.98;;;768.90;716.80;;;;;;4955250;29;20102;-83
2021/10/17 09:19:14;;;;;;;21.70;16.83;;;794.30;742.40;;;;;;4937938;29;20031;-77
2021/10/17 09:21:53;;;;;;;27.48;18.08;;;819.30;716.80;;;;;;4937827;29;20046;-82
2021/10/17 09:24:46;;;;;;;23.17;17.73;;;819.70;691.20;;;;;;4955068;29;20034;-78
2021/10/17 09:27:14;;;;;;;24.63;18.73;;;819.80;665.60;;;;;;4954953;29;20098;-77
2021/10/17 09:29:42;;;;;;;24.42;17.75;;;844.80;716.80;;;;;;4954958;29;20774;-77
2021/10/17 09:32:15;;;;;;;28.08;22.08;;;845.00;716.80;;;;;;4954781;29;20046;-77
2021/10/17 09:34:51;;;;;;;26.10;20.08;;;;;;;;;;4955072;29;20023;-77
2021/10/17 09:37:17;;;;;;;23.92;16.85;;;870.60;640.00;;;;;;4955294;29;20074;-77
2021/10/17 09:39:51;;;;;;;30.42;22.83;;;845.10;640.00;;;;;;4937836;29;20118;-77
2021/10/17 09:42:21;;;;;;;18.15;14.63;;;819.70;640.00;;;;;;4937821;29;20023;-77
2021/10/17 09:44:48;;;;;;;16.70;13.45;;;768.60;691.20;;;;;;4937779;29;20023;-77
2021/10/17 09:47:14;;;;;;;20.05;13.90;;;793.60;716.80;;;;;;4937682;29;20396;-77
2021/10/17 09:49:41;;;;;;;21.88;13.88;;;819.20;665.60;;;;;;4954881;29;20039;-84
2021/10/17 09:52:10;;;;;;;19.88;15.18;;;;;;;;;;4954930;29;20205;-77
2021/10/17 09:54:37;;;;;;;18.90;15.13;;;871.00;614.40;;;;;;4954861;29;20540;-77
2021/10/17 09:57:07;;;;;;;19.10;14.70;;;871.00;588.80;;;;;;4954819;29;20038;-82
2021/10/17 09:59:35;;;;;;;19.50;13.55;;;896.10;563.20;;;;;;4954777;29;20027;-77
2021/10/17 10:02:06;;;;;;;20.10;14.63;;;871.20;563.20;;;;;;4954808;29;20027;-77
2021/10/17 10:04:33;;;;;;;19.85;15.27;;;793.80;665.60;;;;;;4915797;29;20135;-77
2021/10/17 10:07:00;;;;;;;22.00;15.50;;;691.70;793.60;;;;;;4919756;29;20418;-76
2021/10/17 10:09:27;;;;;;;20.73;15.40;;;640.00;896.00;;;;;;4918700;29;20036;-76
2021/10/17 10:11:54;;;;;;;22.42;16.25;;;589.10;972.80;;;;;;4903000;29;20234;-77
2021/10/17 10:14:21;;;;;;;24.00;16.23;;;563.20;1049.60;;;;;;4903034;29;20028;-77
2021/10/17 10:16:53;;;;;;;23.88;15.63;;;537.70;1100.80;;;;;;4902931;29;20028;-77
2021/10/17 10:19:19;;;;;;;19.42;14.60;;;512.40;1100.80;;;;;;4920258;29;20028;-77
2021/10/17 10:21:45;;;;;;;22.08;16.13;;;487.20;1152.00;;;;;;4919842;29;20035;-77
2021/10/17 10:24:12;;;;;;;18.27;13.65;;;486.90;1177.60;;;;;;4902967;29;20040;-77
2021/10/17 10:26:42;;;;;;;20.20;13.98;;;486.80;1152.00;;;;;;4919784;29;20028;-77
2021/10/17 10:29:08;;;;;;;18.88;13.77;;;486.40;1254.40;;;;;;4919617;29;20033;-77
2021/10/17 10:31:40;;;;;;;17.80;14.13;;;461.60;1228.80;;;;;;4918419;29;20508;-77
2021/10/17 10:34:12;;;;;;;18.85;13.45;;;461.30;1305.60;;;;;;4919597;29;20032;-77
2021/10/17 10:36:45;;;;;;;34.53;21.17;;;461.40;1305.60;;;;;;4919957;29;20035;-77
2021/10/17 10:39:13;;;;;;;45.92;24.75;;;461.50;1254.40;;;;;;4902602;29;20560;-77
2021/10/17 10:41:57;;;;;;;37.55;22.52;;;461.30;1254.40;;;;;;4919810;29;20466;-77
2021/10/17 10:44:31;;;;;;;25.23;14.15;;;461.10;1305.60;;;;;;4902486;29;20037;-77
2021/10/17 10:46:58;;;;;;;18.58;11.13;;;461.00;1305.60;;;;;;4918201;29;20028;-77
2021/10/17 10:49:46;;;;;;;70.88;35.03;;;460.90;1280.00;;;;;;4919238;29;20028;-77
2021/10/17 10:52:24;;;;;;;28.00;14.70;;;436.10;1331.20;;;;;;4902351;29;20028;-77
2021/10/17 10:55:02;;;;;;;18.55;12.27;;;436.10;1280.00;;;;;;4918504;29;20028;-80
2021/10/17 10:57:38;;;;;;;17.40;12.73;;;436.00;1305.60;;;;;;4914535;29;20028;-83
2021/10/17 11:00:12;;;;;;;23.77;15.40;;;436.00;1331.20;;;;;;4917714;29;20036;-78
2021/10/17 11:02:59;;;;;;;17.27;13.32;;;435.90;1331.20;;;;;;4924302;29;20114;-77
2021/10/17 11:05:27;;;;;;;27.08;16.05;;;436.00;1356.80;;;;;;4955435;29;20106;-80
2021/10/17 11:08:11;;;;;;;21.67;12.75;;;435.90;1356.80;;;;;;4956739;29;20027;-77
2021/10/17 11:10:38;;;;;;;19.90;11.30;;;435.80;1356.80;;;;;;4956902;29;20113;-77
2021/10/17 11:13:06;;;;;;;14.60;10.77;;;435.60;1356.80;;;;;;4939386;29;20032;-77
2021/10/17 11:15:46;;;;;;;18.50;10.93;;;435.60;1356.80;;;;;;4956965;29;20102;-77
2021/10/17 11:18:12;;;;;;;16.17;11.70;;;435.60;1382.40;;;;;;4956643;28;20033;-77
2021/10/17 11:20:41;;;;;;;16.75;11.48;;;435.50;1382.40;;;;;;4938303;29;20035;-77
2021/10/17 11:23:18;;;;;;;17.58;12.02;;;435.50;1382.40;;;;;;4951636;29;20480;-77
2021/10/17 11:26:04;;;;;;;20.63;15.43;;;435.50;1408.00;;;;;;4953809;29;20027;-78
2021/10/17 11:28:32;;;;;;;15.82;11.65;;;435.50;1408.00;;;;;;4938906;29;20031;-85
2021/10/17 11:31:07;;;;;;;18.55;10.57;;;435.50;1408.00;;;;;;4955934;29;20035;-78
2021/10/17 11:33:34;;;;;;;18.00;12.00;;;435.40;1382.40;;;;;;4937945;29;20023;-85
2021/10/17 11:36:00;;;;;;;24.85;14.20;;;435.40;1408.00;;;;;;4939608;29;20132;-79
2021/10/17 11:38:26;;;;;;;21.42;14.05;;;435.40;1408.00;;;;;;4955879;29;20035;-77
2021/10/17 11:41:01;;;;;;;15.45;10.20;;;435.40;1433.60;;;;;;4956095;29;20031;-77
2021/10/17 11:43:40;;;;;;;17.83;11.27;;;435.30;1408.00;;;;;;4939313;29;20025;-77
2021/10/17 11:46:21;;;;;;;16.98;11.60;;;435.40;1433.60;;;;;;4956302;29;20034;-78
2021/10/17 11:48:48;;;;;;;17.35;11.38;;;435.40;1433.60;;;;;;4956446;29;20055;-77
2021/10/17 11:51:16;;;;;;;22.67;12.88;;;435.30;1433.60;;;;;;4956358;29;20098;-77
2021/10/17 11:53:43;;;;;;;13.85;11.07;;;435.30;1459.20;;;;;;4939272;29;20484;-85
2021/10/17 11:56:11;;;;;;;17.52;11.75;;;435.30;1382.40;;;;;;4939204;29;20031;-85
2021/10/17 11:58:39;;;;;;;17.17;12.10;;;435.30;1408.00;;;;;;4939053;29;20113;-78
2021/10/17 12:01:16;;;;;;;36.45;16.45;;;435.30;1408.00;;;;;;4939096;29;20481;-77
2021/10/17 12:03:47;;;;;;;28.10;18.58;;;435.30;1408.00;;;;;;4955972;29;20051;-84
2021/10/17 12:06:15;;;;;;;49.08;24.33;;;435.40;1408.00;;;;;;4956278;29;20019;-78
2021/10/17 12:08:48;;;;;;;29.77;17.60;;;435.60;1408.00;;;;;;4956020;29;20019;-78
2021/10/17 12:11:15;;;;;;;30.65;19.15;;;435.60;1382.40;;;;;;4956071;29;20106;-78
2021/10/17 12:13:46;;;;;;;29.60;15.93;;;435.80;1382.40;;;;;;4938802;29;20052;-77
2021/10/17 12:16:24;;;;;;;18.58;12.75;;;435.70;1408.00;;;;;;4955963;29;20027;-77
2021/10/17 12:19:05;;;;;;;19.13;13.35;;;435.70;1382.40;;;;;;4956321;29;20102;-78
2021/10/17 12:21:46;;;;;;;20.33;12.23;;;435.60;1382.40;;;;;;4955858;29;20027;-78
2021/10/17 12:24:12;;;;;;;20.60;14.18;;;435.40;1408.00;;;;;;4955966;29;20023;-79
2021/10/17 12:26:52;;;;;;;15.10;10.68;;;435.40;1433.60;;;;;;4934622;29;20797;-81
2021/10/17 12:29:19;;;;;;;12.82;9.65;;;435.50;1408.00;;;;;;4945973;29;20043;-82
2021/10/17 12:31:57;;;;;;;18.13;10.70;;;435.50;1382.40;;;;;;4938476;29;20082;-81
2021/10/17 12:34:48;;;;;;;16.75;10.68;;;435.60;1382.40;;;;;;4932884;29;20034;-78
2021/10/17 12:37:18;;;;;;;18.05;10.68;;;435.40;1382.40;;;;;;4919285;29;20175;-81
2021/10/17 12:39:45;;;;;;;21.05;12.95;;;435.50;1408.00;;;;;;4919397;29;20039;-79
2021/10/17 12:42:11;;;;;;;20.08;13.77;;;435.50;1382.40;;;;;;4938186;29;20023;-80
2021/10/17 12:44:48;;;;;;;60.28;37.63;;;435.50;1408.00;;;;;;4955452;29;20106;-78
2021/10/17 12:47:15;;;;;;;73.82;46.25;;;435.60;1408.00;;;;;;4937669;29;20032;-80
2021/10/17 12:49:43;;;;;;;23.77;16.52;;;435.60;1408.00;;;;;;4955246;29;20028;-81
2021/10/17 12:52:10;;;;;;;20.58;14.85;;;435.70;1382.40;;;;;;4937903;29;20395;-78
2021/10/17 12:54:38;;;;;;;33.00;20.05;;;435.90;1382.40;;;;;;4937495;29;20028;-79
2021/10/17 12:57:09;;;;;;;52.13;26.90;;;460.90;1382.40;;;;;;4922231;29;20039;-78
2021/10/17 12:59:50;;;;;;;26.85;16.25;;;460.90;1356.80;;;;;;4929270;29;20533;-78
2021/10/17 13:02:16;;;;;;;24.75;16.90;;;460.80;1356.80;;;;;;4919068;29;20142;-78
2021/10/17 13:04:49;;;;;;;27.67;16.98;;;461.20;1356.80;;;;;;4933866;29;20529;-79
2021/10/17 13:07:30;;;;;;;;;;;461.50;1331.20;;;;;;4936809;28;20031;-78
2021/10/17 13:10:08;;;;;;;13.52;8.88;;;461.50;1305.60;;;;;;4934882;29;20363;-78
2021/10/17 13:12:52;;;;;;;51.70;38.92;;;461.50;1305.60;;;;;;4940372;29;20030;-78
2021/10/17 13:15:29;;;;;;;17.42;11.95;;;486.70;1280.00;;;;;;4937306;29;20035;-77
2021/10/17 13:18:02;;;;;;;50.05;32.38;;;512.40;1203.20;;;;;;4936965;29;20036;-79
2021/10/17 13:20:34;;;;;;;21.70;15.15;;;538.00;1152.00;;;;;;4935481;29;20034;-76
2021/10/17 13:23:03;;;;;;;22.25;15.70;;;538.20;1100.80;;;;;;4937852;29;20032;-78
2021/10/17 13:25:31;;;;;;;18.10;8.45;;;563.20;1100.80;;;;;;4953804;29;20031;-76
2021/10/17 13:27:58;;;;;;;11.57;8.27;;;538.40;1075.20;;;;;;4937756;29;20047;-78
2021/10/17 13:30:26;;;;;;;15.35;11.18;;;538.20;1075.20;;;;;;4954979;29;20484;-77
2021/10/17 13:32:53;;;;;;;9.82;7.78;;;538.10;1100.80;;;;;;4937958;29;20054;-76
2021/10/17 13:35:19;;;;;;;14.18;8.13;;;537.90;1100.80;;;;;;4955127;29;20385;-77
2021/10/17 13:37:46;;;;;;;16.23;8.48;;;537.60;1126.40;;;;;;4937781;29;20031;-77
2021/10/17 13:40:14;;;;;;;12.18;8.98;;;537.70;1152.00;;;;;;4938349;29;20054;-78
2021/10/17 13:42:40;;;;;;;21.67;10.77;;;537.90;1126.40;;;;;;4948996;29;20031;-78
2021/10/17 13:45:10;;;;;;;17.88;12.88;;;538.10;1100.80;;;;;;4946728;29;20098;-77
2021/10/17 13:47:36;;;;;;;16.05;9.18;;;538.10;1075.20;;;;;;4958508;29;20433;-78
2021/10/17 13:50:03;;;;;;;14.88;8.82;;;538.40;1024.00;;;;;;4941170;29;20039;-77
2021/10/17 13:52:29;;;;;;;12.77;7.55;;;538.10;1049.60;;;;;;4941292;29;20078;-78
2021/10/17 13:54:54;;;;;;;42.13;22.38;;;537.90;1075.20;;;;;;4957969;29;20039;-78
2021/10/17 13:57:20;;;;;;;28.60;15.20;;;538.00;1075.20;;;;;;4958365;29;20482;-77
2021/10/17 13:59:46;;;;;;;18.95;13.40;;;537.90;1049.60;;;;;;4941083;29;20030;-77
2021/10/17 14:02:12;;;;;;;24.15;15.77;;;537.80;1075.20;;;;;;4941021;29;20106;-78
2021/10/17 14:04:38;;;;;;;13.13;9.25;;;512.60;1049.60;;;;;;4941011;29;20551;-77
2021/10/17 14:07:04;;;;;;;11.15;8.57;;;487.20;1152.00;;;;;;4941062;29;20066;-77
2021/10/17 14:09:30;;;;;;;13.80;9.35;;;486.80;1177.60;;;;;;4958127;29;20023;-78
2021/10/17 14:11:56;;;;;;;18.05;11.77;;;486.40;1228.80;;;;;;4940976;29;20038;-76
2021/10/17 14:14:24;;;;;;;16.70;11.20;;;461.50;1254.40;;;;;;4958243;29;20467;-78
2021/10/17 14:16:50;;;;;;;16.33;10.50;;;461.30;1228.80;;;;;;4940995;29;20031;-78
2021/10/17 14:19:16;;;;;;;10.85;8.63;;;461.20;1254.40;;;;;;4957657;29;20038;-78
2021/10/17 14:21:42;;;;;;;14.38;9.50;;;461.00;1254.40;;;;;;4940803;29;20031;-79
2021/10/17 14:24:09;;;;;;;16.55;7.78;;;461.00;1280.00;;;;;;4940732;29;20386;-79
2021/10/17 14:26:35;;;;;;;11.57;7.47;;;460.90;1280.00;;;;;;4956861;29;20038;-80
2021/10/17 14:29:01;;;;;;;22.42;11.80;;;460.80;1280.00;;;;;;4939486;29;20061;-80
2021/10/17 14:31:27;;;;;;;17.30;9.55;;;460.80;1305.60;;;;;;4956296;29;20035;-79
2021/10/17 14:33:53;;;;;;;15.90;10.43;;;460.80;1280.00;;;;;;4939177;29;20054;-80
2021/10/17 14:36:19;;;;;;;14.70;8.90;;;436.10;1280.00;;;;;;4957318;29;20133;-79
2021/10/17 14:38:44;;;;;;;28.70;18.45;;;436.00;1254.40;;;;;;4940221;29;20031;-77
2021/10/17 14:41:11;;;;;;;36.08;24.77;;;436.00;1254.40;;;;;;4940107;29;20422;-79
2021/10/17 14:43:38;;;;;;;41.35;23.98;;;435.90;1280.00;;;;;;4940357;29;20031;-80
2021/10/17 14:46:04;;;;;;;26.55;19.77;;;435.80;1331.20;;;;;;4957488;29;20034;-79
2021/10/17 14:48:31;;;;;;;23.10;16.65;;;435.80;1280.00;;;;;;4940256;29;20035;-80
2021/10/17 14:50:56;;;;;;;23.08;12.75;;;435.80;1280.00;;;;;;4940081;28;20396;-79
2021/10/17 14:53:23;;;;;;;13.82;7.97;;;435.70;1280.00;;;;;;4939165;29;20118;-80
2021/10/17 14:55:49;;;;;;;18.17;11.63;;;435.60;1305.60;;;;;;4957352;29;20038;-79
2021/10/17 14:58:15;;;;;;;23.45;9.38;;;435.60;1280.00;;;;;;4940121;29;20035;-79
2021/10/17 15:00:42;;;;;;;12.80;7.13;;;435.50;1331.20;;;;;;4957235;29;20035;-79
2021/10/17 15:03:09;;;;;;;16.95;8.25;;;435.40;1305.60;;;;;;4939869;29;20141;-80
2021/10/17 15:05:35;;;;;;;18.77;9.57;;;435.40;1331.20;;;;;;4957081;29;20502;-79
2021/10/17 15:08:03;;;;;;;20.08;10.25;;;435.30;1331.20;;;;;;4957533;29;20376;-79
2021/10/17 15:10:30;;;;;;;16.65;8.60;;;435.30;1356.80;;;;;;4939777;29;20035;-80
2021/10/17 15:12:56;;;;;;;29.48;14.15;;;435.20;1356.80;;;;;;4939913;29;20019;-80
2021/10/17 15:15:22;;;;;;;26.27;16.45;;;410.50;1382.40;;;;;;4939918;29;20043;-79
2021/10/17 15:17:49;;;;;;;27.30;15.38;;;410.40;1331.20;;;;;;4957032;29;20015;-81
2021/10/17 15:20:17;;;;;;;25.98;17.02;;;410.40;1356.80;;;;;;4956950;29;20119;-80
2021/10/17 15:22:43;;;;;;;33.03;18.55;;;410.30;1356.80;;;;;;4939384;29;20481;-80
2021/10/17 15:25:10;;;;;;;24.50;15.85;;;410.30;1356.80;;;;;;4939709;29;20027;-79
2021/10/17 15:27:36;;;;;;;28.38;17.73;;;410.30;1331.20;;;;;;4939676;29;20023;-80
2021/10/17 15:30:05;;;;;;;24.98;16.20;;;410.10;1331.20;;;;;;4939445;29;20071;-78
2021/10/17 15:32:31;;;;;;;38.95;21.55;;;410.10;1382.40;;;;;;4939396;29;20114;-79
2021/10/17 15:34:58;;;;;;;76.05;48.72;;;410.00;1408.00;;;;;;4939489;29;20027;-80
2021/10/17 15:37:25;;;;;;;58.60;35.60;;;409.90;1408.00;;;;;;4939314;29;20030;-79
2021/10/17 15:39:51;;;;;;;53.90;29.67;;;409.90;1433.60;;;;;;4939239;29;20066;-80
2021/10/17 15:42:18;;;;;;;67.63;30.23;;;409.70;1484.80;;;;;;4956559;29;20086;-81
2021/10/17 15:44:44;;;;;;;67.55;29.23;;;409.70;1484.80;;;;;;4939190;29;20034;-79
2021/10/17 15:47:10;;;;;;;57.78;29.60;;;384.90;1510.40;;;;;;4939316;29;20027;-78
2021/10/17 15:49:37;;;;;;;62.80;30.75;;;384.70;1510.40;;;;;;4956123;29;20066;-79
2021/10/17 15:52:07;;;;;;;74.55;34.10;;;384.60;1536.00;;;;;;4939065;29;20027;-80
2021/10/17 15:54:33;;;;;;;90.13;45.22;;;384.50;1536.00;;;;;;4938969;29;20023;-79
2021/10/17 15:56:59;;;;;;;89.95;43.97;;;384.30;1536.00;;;;;;4938295;29;20030;-79
2021/10/17 15:59:25;;;;;;;89.05;47.40;;;384.20;1561.60;;;;;;4956304;29;20028;-78
2021/10/17 16:01:51;;;;;;;95.90;50.53;;;384.10;1561.60;;;;;;4938618;29;20027;-82
2021/10/17 16:04:18;;;;;;;95.97;53.97;;;384.10;1561.60;;;;;;4938514;29;20392;-79
2021/10/17 16:06:45;;;;;;;99.75;55.72;;;384.00;1612.80;;;;;;4938776;29;20027;-80
2021/10/17 16:09:11;;;;;;;113.05;63.33;;;359.20;1612.80;;;;;;4955918;29;20023;-80
2021/10/17 16:11:37;;;;;;;84.55;45.10;;;359.20;1612.80;;;;;;4956047;29;20035;-78
2021/10/17 16:14:04;;;;;;;119.68;67.25;;;359.00;1740.80;;;;;;4938779;29;20020;-78
2021/10/17 16:16:30;;;;;;;118.65;69.30;;;358.50;1689.60;;;;;;4938709;29;20023;-78
2021/10/17 16:18:57;;;;;;;137.60;79.32;;;358.90;1715.20;;;;;;4938075;29;20031;-78
2021/10/17 16:21:23;;;;;;;130.52;73.85;;;358.80;1766.40;;;;;;4955371;29;20441;-78
2021/10/17 16:23:50;;;;;;;138.40;75.65;;;358.70;1766.40;;;;;;4955782;29;20381;-77
2021/10/17 16:26:16;;;;;;;148.48;79.97;;;358.60;1766.40;;;;;;4938554;29;20079;-79
2021/10/17 16:28:43;;;;;;;137.30;81.05;;;358.60;1766.40;;;;;;4955102;28;20047;-80
2021/10/17 16:31:12;;;;;;;128.40;78.45;;;358.60;1843.20;;;;;;4937680;29;20404;-81
2021/10/17 16:33:41;;;;;;;155.10;88.13;;;358.50;1843.20;;;;;;4935837;29;20400;-82
2021/10/17 16:36:09;;;;;;;201.68;106.90;;;358.40;1843.20;;;;;;4937885;29;20035;-80
2021/10/17 16:38:35;;;;;;;163.77;94.70;;;358.40;1817.60;;;;;;4937908;29;20062;-80
2021/10/17 16:41:03;;;;;;;143.98;83.95;;;333.70;1894.40;;;;;;4937828;29;20043;-79
2021/10/17 16:43:30;;;;;;;145.07;84.80;;;333.50;1920.00;;;;;;4955014;29;20031;-80
2021/10/17 16:45:56;;;;;;;299.35;148.38;;;333.50;1894.40;;;;;;4955071;29;20425;-79
2021/10/17 16:48:22;;;;;;;274.33;143.90;;;333.40;1894.40;;;;;;4937775;29;20130;-81
2021/10/17 16:50:48;;;;;;;485.73;219.98;;;333.30;1894.40;;;;;;4937587;29;20089;-81
2021/10/17 16:53:14;;;;;;;419.38;201.02;;;333.30;1894.40;;;;;;4937714;29;20027;-80
2021/10/17 16:55:41;;;;;;;293.17;144.30;;;333.30;1894.40;;;;;;4937715;29;20042;-78
2021/10/17 16:58:07;;;;;;;477.70;231.77;;;333.20;1945.60;;;;;;4937557;29;20085;-81
2021/10/17 17:00:34;;;;;;;423.58;197.80;;;333.20;1920.00;;;;;;4954892;29;20038;-79
2021/10/17 17:03:00;;;;;;;412.23;196.57;;;333.10;1920.00;;;;;;4937445;29;20191;-79
2021/10/17 17:05:30;;;;;;;303.23;147.73;;;333.30;1920.00;;;;;;4954558;29;20114;-79
2021/10/17 17:07:57;;;;;;;416.77;188.20;;;333.00;1971.20;;;;;;4937666;29;20393;-81
2021/10/17 17:10:23;;;;;;;477.77;222.75;;;333.00;1971.20;;;;;;4937507;29;20035;-79
2021/10/17 17:12:49;;;;;;;373.75;181.50;;;333.00;1971.20;;;;;;4937535;29;20491;-81
2021/10/17 17:15:16;;;;;;;397.42;193.23;;;332.80;1996.80;;;;;;4938116;29;20362;-81
2021/10/17 17:17:42;;;;;;;437.63;243.10;;;332.80;2022.40;;;;;;4941121;29;20035;-80
2021/10/17 17:20:10;;;;;;;499.88;289.05;;;307.90;2048.00;;;;;;4958672;29;20062;-81
2021/10/17 17:22:36;;;;;;;322.67;158.82;;;307.70;2099.20;;;;;;4941298;29;20031;-82
2021/10/17 17:25:04;;;;;;;273.30;131.82;;;307.50;2150.40;;;;;;4958173;29;20038;-81
2021/10/17 17:27:31;;;;;;;313.60;149.65;;;307.40;2150.40;;;;;;4941072;29;20038;-83
2021/10/17 17:29:58;;;;;;;367.92;188.90;;;307.60;2124.80;;;;;;4958267;29;20126;-82
2021/10/17 17:32:24;;;;;;;379.05;221.32;;;307.30;2099.20;;;;;;4958431;29;20242;-79
2021/10/17 17:34:52;;;;;;;302.90;160.60;;;307.70;2073.60;;;;;;4941180;29;20123;-80
2021/10/17 17:37:18;;;;;;;385.30;231.35;;;307.60;2124.80;;;;;;4958057;29;20023;-81
2021/10/17 17:39:44;;;;;;;416.95;264.38;;;307.40;2124.80;;;;;;4941132;29;20421;-82
2021/10/17 17:42:10;;;;;;;370.73;208.85;;;307.60;2124.80;;;;;;4940908;29;20019;-82
2021/10/17 17:44:36;;;;;;;364.52;189.95;;;307.60;2099.20;;;;;;4941187;29;20081;-82
2021/10/17 17:47:03;;;;;;;318.90;162.88;;;307.60;2099.20;;;;;;4941089;29;20023;-80
2021/10/17 17:49:28;;;;;;;330.23;173.73;;;307.50;2124.80;;;;;;4940845;29;20039;-81
2021/10/17 17:51:55;;;;;;;296.08;165.50;;;307.50;2124.80;;;;;;4958545;29;20440;-81
2021/10/17 17:54:24;;;;;;;306.58;172.32;;;307.40;2150.40;;;;;;4940949;29;20031;-79
2021/10/17 17:56:54;;;;;;;311.25;168.27;;;307.40;2124.80;;;;;;4958289;29;20114;-81
2021/10/17 17:59:22;;;;;;;304.35;158.90;;;307.40;2124.80;;;;;;4957988;29;20110;-82
2021/10/17 18:01:48;;;;;;;292.17;157.10;;;307.40;2150.40;;;;;;4940823;29;20031;-81
2021/10/17 18:04:14;;;;;;;298.58;158.38;;;307.30;2150.40;;;;;;4908707;29;20195;-82
2021/10/17 18:06:40;;;;;;;269.75;152.98;;;307.30;2150.40;;;;;;4902889;29;20122;-81
2021/10/17 18:09:07;;;;;;;282.10;149.73;;;307.30;2176.00;;;;;;4919709;29;20111;-82
2021/10/17 18:11:33;;;;;;;291.48;148.50;;;307.20;2176.00;;;;;;4918400;29;20515;-83
2021/10/17 18:14:00;;;;;;;277.10;141.40;;;282.40;2176.00;;;;;;4918549;29;20035;-82
2021/10/17 18:16:26;;;;;;;269.52;137.20;;;282.30;2201.60;;;;;;4902586;29;20035;-82
2021/10/17 18:18:52;;;;;;;267.20;138.57;;;282.30;2201.60;;;;;;4919715;29;20028;-82
2021/10/17 18:21:18;;;;;;;251.45;130.95;;;282.40;2201.60;;;;;;4919503;29;20040;-82
2021/10/17 18:23:44;;;;;;;249.93;134.18;;;307.20;2227.20;;;;;;4918219;29;20099;-82
2021/10/17 18:26:10;;;;;;;237.15;129.20;;;282.50;2176.00;;;;;;4918222;29;20032;-82
2021/10/17 18:28:36;;;;;;;271.70;135.00;;;282.40;2201.60;;;;;;4918235;29;20422;-82
2021/10/17 18:31:02;;;;;;;248.10;128.18;;;282.30;2201.60;;;;;;4919319;29;20446;-82
2021/10/17 18:33:28;;;;;;;227.68;123.80;;;282.20;2176.00;;;;;;4918094;29;20067;-80
2021/10/17 18:35:56;;;;;;;203.15;109.82;;;282.30;2176.00;;;;;;4902248;29;20091;-82
2021/10/17 18:38:22;;;;;;;222.05;123.15;;;282.30;2150.40;;;;;;4918886;29;20442;-81
2021/10/17 18:40:48;;;;;;;222.55;116.13;;;282.30;2124.80;;;;;;4902377;29;20028;-81
2021/10/17 18:43:15;;;;;;;213.30;115.32;;;282.30;2124.80;;;;;;4918989;29;20059;-82
2021/10/17 18:45:41;;;;;;;245.48;124.18;;;282.30;2150.40;;;;;;4919162;29;20426;-80
2021/10/17 18:48:07;;;;;;;236.95;121.20;;;282.20;2176.00;;;;;;4901742;29;20036;-81